Time;durP1;ratioP1;P1;durP2;ratioP2;P2;SDS_P1;SDS_P2;PMS_P1;PMS_P2;Temp;Humidity;BMP_temperature;BMP_pressure;BME280_temperature;BME280_humidity;BME280_pressure;Samples;Min_cycle;Max_cycle;Signal;HPM_P1;HPM_P2
2022/08/15 00:00:16;;;;;;;10.77;5.88;;;;;;;21.41;nan;100369.56;2097988;28;20440;-66
2022/08/15 00:01:27;;;;;;;13.35;6.13;;;;;;;21.41;nan;100372.31;2105821;28;20052;-65
2022/08/15 00:02:35;;;;;;;17.90;6.75;;;;;;;21.45;nan;100370.44;2113139;28;20407;-65
2022/08/15 00:03:40;;;;;;;7.75;5.40;;;;;;;;;;2104155;28;20035;-65
2022/08/15 00:04:45;;;;;;;10.18;5.75;;;;;;;21.55;nan;100373.78;2097403;28;20045;-66
2022/08/15 00:05:50;;;;;;;8.35;6.18;;;;;;;21.50;nan;100356.50;2103814;28;20048;-66
2022/08/15 00:06:57;;;;;;;10.30;6.07;;;;;;;21.40;nan;100365.25;2089416;28;20041;-65
2022/08/15 00:07:59;;;;;;;12.80;6.13;;;;;;;21.37;nan;100363.22;2097216;28;20040;-66
2022/08/15 00:09:09;;;;;;;9.93;5.80;;;;;;;21.36;nan;100366.31;2104919;28;20028;-66
2022/08/15 00:10:12;;;;;;;8.52;5.95;;;;;;;21.35;nan;100362.78;2097003;28;20043;-66
2022/08/15 00:11:21;;;;;;;10.52;6.60;;;;;;;21.37;nan;100357.75;2080849;28;20497;-66
2022/08/15 00:12:24;;;;;;;11.75;6.50;;;;;;;21.41;nan;100358.63;2089960;28;20028;-66
2022/08/15 00:13:28;;;;;;;14.10;6.70;;;;;;;21.37;nan;100357.75;2088731;28;20531;-66
2022/08/15 00:14:36;;;;;;;10.40;6.13;;;;;;;21.41;nan;100361.38;2081582;28;20045;-66
2022/08/15 00:15:40;;;;;;;16.30;6.93;;;;;;;21.44;nan;100366.13;2089023;28;20052;-67
2022/08/15 00:16:44;;;;;;;12.70;6.78;;;;;;;21.44;nan;100363.41;2089256;28;20511;-66
2022/08/15 00:17:48;;;;;;;11.27;6.85;;;;;;;21.45;nan;100364.97;2097104;28;20048;-65
2022/08/15 00:18:51;;;;;;;10.35;6.68;;;;;;;21.44;nan;100363.41;2104417;28;20090;-65
2022/08/15 00:19:56;;;;;;;10.98;6.38;;;;;;;21.45;nan;100364.97;2088455;28;20486;-66
2022/08/15 00:21:05;;;;;;;14.55;7.55;;;;;;;21.45;nan;100359.50;2081733;28;20053;-67
2022/08/15 00:22:09;;;;;;;12.15;6.35;;;;;;;21.46;nan;100363.03;2097052;28;20036;-67
2022/08/15 00:23:13;;;;;;;15.40;8.25;;;;;;;21.46;nan;100365.75;2089043;28;20041;-65
2022/08/15 00:24:20;;;;;;;9.40;6.05;;;;;;;21.44;nan;100363.41;2096827;28;20052;-67
2022/08/15 00:25:23;;;;;;;11.07;6.38;;;;;;;21.44;nan;100363.41;2088645;28;20467;-65
2022/08/15 00:26:28;;;;;;;11.07;5.90;;;;;;;21.43;nan;100367.25;2080841;28;20034;-66
2022/08/15 00:27:31;;;;;;;9.82;6.15;;;;;;;21.44;nan;100363.41;2088777;28;20516;-65
2022/08/15 00:28:33;;;;;;;8.85;5.80;;;;;;;21.41;nan;100369.56;2097112;28;20041;-67
2022/08/15 00:29:36;;;;;;;10.77;6.32;;;;;;;21.39;nan;100366.41;2096409;28;20032;-65
2022/08/15 00:30:45;;;;;;;10.45;5.95;;;;;;;21.37;nan;100367.91;2089325;28;20468;-64
2022/08/15 00:31:51;;;;;;;11.10;6.05;;;;;;;21.43;nan;100366.47;2088512;28;20415;-65
2022/08/15 00:32:57;;;;;;;9.85;6.18;;;;;;;21.41;nan;100369.56;2097982;28;20040;-65
2022/08/15 00:33:59;;;;;;;8.43;5.60;;;;;;;21.30;nan;100376.69;2096528;28;20043;-65
2022/08/15 00:35:01;;;;;;;9.70;6.40;;;;;;;21.30;nan;100374.75;2092750;28;20044;-65
2022/08/15 00:36:07;;;;;;;11.50;6.25;;;;;;;21.28;nan;100373.56;2097315;28;20058;-65
2022/08/15 00:37:14;;;;;;;8.50;5.88;;;;;;;21.34;nan;100374.84;2100429;28;20879;-65
2022/08/15 00:38:19;;;;;;;12.35;6.00;;;;;;;21.37;nan;100373.38;2105324;28;20035;-65
2022/08/15 00:39:29;;;;;;;11.20;6.35;;;;;;;21.37;nan;100376.88;2096084;28;20033;-65
2022/08/15 00:41:58;;;;;;;10.18;6.03;;;;;;;21.32;nan;100377.16;2089792;28;20053;-65
2022/08/15 00:43:01;;;;;;;11.48;6.55;;;;;;;21.33;nan;100377.94;2089098;28;20484;-65
2022/08/15 00:44:13;;;;;;;15.93;6.70;;;;;;;21.30;nan;100379.44;2105087;28;20028;-65
2022/08/15 00:45:15;;;;;;;10.77;6.68;;;;;;;21.37;nan;100382.34;2095255;28;20107;-65
2022/08/15 00:46:20;;;;;;;10.55;6.53;;;;;;;21.35;nan;100386.59;2095982;28;20040;-65
2022/08/15 00:47:22;;;;;;;12.90;7.18;;;;;;;21.34;nan;100387.72;2097534;28;20028;-65
2022/08/15 00:48:42;;;;;;;15.40;6.85;;;;;;;21.35;nan;100379.22;2105109;28;20042;-66
2022/08/15 00:49:45;;;;;;;13.10;6.68;;;;;;;21.34;nan;100385.78;2088445;28;20037;-65
2022/08/15 00:50:47;;;;;;;9.48;6.43;;;;;;;21.33;nan;100384.19;2088092;28;20044;-65
2022/08/15 00:51:59;;;;;;;12.55;6.57;;;;;;;21.36;nan;100389.00;2088586;28;20037;-65
2022/08/15 00:53:08;;;;;;;10.65;6.53;;;;;;;21.37;nan;100384.31;2098223;28;20051;-65
2022/08/15 00:54:17;;;;;;;10.70;6.60;;;;;;;21.41;nan;100379.72;2096740;28;20519;-65
2022/08/15 00:55:19;;;;;;;11.93;6.88;;;;;;;21.45;nan;100384.13;2096393;28;20547;-65
2022/08/15 00:56:26;;;;;;;15.57;7.00;;;;;;;21.45;nan;100381.38;2112432;28;20052;-65
2022/08/15 00:57:39;;;;;;;13.10;7.35;;;;;;;21.48;nan;100382.63;2095485;28;20060;-65
2022/08/15 00:58:45;;;;;;;17.20;8.20;;;;;;;21.48;nan;100386.13;2082990;28;20517;-65
2022/08/15 01:00:11;;;;;;;11.07;7.40;;;;;;;21.54;nan;100381.19;2097325;28;20406;-65
2022/08/15 01:01:14;;;;;;;18.42;8.48;;;;;;;21.57;nan;100382.44;2087454;28;20041;-65
2022/08/15 01:02:18;;;;;;;12.55;8.60;;;;;;;21.58;nan;100382.06;2097245;28;20407;-65
2022/08/15 01:03:27;;;;;;;19.45;8.90;;;;;;;21.61;nan;100383.28;2095532;28;20052;-65
2022/08/15 01:04:32;;;;;;;12.73;8.00;;;;;;;21.61;nan;100380.56;2085168;28;20048;-66
2022/08/15 01:05:34;;;;;;;15.90;10.00;;;;;;;21.64;nan;100379.84;2096554;28;20036;-66
2022/08/15 01:06:37;;;;;;;15.80;8.65;;;;;;;21.67;nan;100379.91;2088344;28;20045;-65
2022/08/15 01:07:46;;;;;;;18.25;9.57;;;;;;;21.68;nan;100377.97;2088613;28;20041;-65
2022/08/15 01:08:49;;;;;;;13.98;8.57;;;;;;;21.66;nan;100381.06;2088333;28;20042;-65
2022/08/15 01:09:56;;;;;;;16.13;9.15;;;;;;;21.66;nan;100381.06;2087857;28;20587;-66
2022/08/15 01:11:04;;;;;;;15.60;9.57;;;;;;;21.66;nan;100383.81;2087628;28;20036;-65
2022/08/15 01:12:13;;;;;;;16.45;9.82;;;;;;;21.65;nan;100378.69;2080077;28;20037;-65
2022/08/15 01:13:18;;;;;;;15.90;9.90;;;;;;;21.66;nan;100380.28;2088231;28;20048;-66
2022/08/15 01:14:20;;;;;;;19.65;9.65;;;;;;;21.68;nan;100377.97;2081096;28;20052;-66
2022/08/15 01:15:28;;;;;;;16.75;9.52;;;;;;;21.67;nan;100374.44;2096728;28;20052;-65
2022/08/15 01:16:32;;;;;;;16.73;9.88;;;;;;;21.69;nan;100380.38;2104175;28;20040;-66
2022/08/15 01:17:42;;;;;;;19.13;10.15;;;;;;;21.70;nan;100378.41;2104581;28;20615;-66
2022/08/15 01:18:51;;;;;;;16.92;9.73;;;;;;;21.71;nan;100380.00;2096060;28;20511;-66
2022/08/15 01:20:07;;;;;;;17.75;10.38;;;;;;;21.73;nan;100380.44;2090659;28;20041;-66
2022/08/15 01:21:22;;;;;;;21.95;11.32;;;;;;;21.77;nan;100381.28;2088058;28;20656;-66
2022/08/15 01:22:47;;;;;;;18.80;9.73;;;;;;;21.77;nan;100375.81;2091133;28;20056;-66
2022/08/15 01:24:24;;;;;;;17.42;9.18;;;;;;;21.77;nan;100377.78;2096382;28;20060;-66
2022/08/15 01:25:29;;;;;;;14.90;8.93;;;;;;;21.73;nan;100374.97;2094044;28;20072;-66
2022/08/15 01:26:35;;;;;;;14.93;9.63;;;;;;;21.72;nan;100368.69;2096137;28;20500;-66
2022/08/15 01:28:02;;;;;;;18.42;10.35;;;;;;;21.80;nan;100375.09;2104787;28;20048;-67
2022/08/15 01:29:07;;;;;;;16.90;10.30;;;;;;;21.81;nan;100375.91;2090769;28;20124;-67
2022/08/15 01:30:17;;;;;;;22.35;10.63;;;;;;;21.81;nan;100381.38;2088151;28;20052;-67
2022/08/15 01:31:25;;;;;;;25.33;11.02;;;;;;;21.83;nan;100385.34;2105287;28;20182;-66
2022/08/15 01:32:28;;;;;;;16.98;10.13;;;;;;;21.84;nan;100373.22;2088161;28;20040;-67
2022/08/15 01:33:33;;;;;;;17.45;10.55;;;;;;;21.87;nan;100369.78;2096549;28;20413;-65
2022/08/15 01:34:41;;;;;;;16.40;10.15;;;;;;;21.88;nan;100376.84;2109144;28;20032;-66
2022/08/15 01:35:46;;;;;;;19.27;10.52;;;;;;;21.91;nan;100367.91;2095468;28;20041;-66
2022/08/15 01:36:48;;;;;;;17.60;10.23;;;;;;;21.93;nan;100379.28;2104921;28;20039;-66
2022/08/15 01:37:53;;;;;;;18.27;10.45;;;;;;;21.91;nan;100376.13;2101642;28;20052;-66
2022/08/15 01:39:16;;;;;;;20.60;9.90;;;;;;;21.92;nan;100365.97;2087937;28;20574;-66
2022/08/15 01:40:42;;;;;;;17.63;10.45;;;;;;;21.92;nan;100372.22;2090450;28;20055;-66
2022/08/15 01:41:46;;;;;;;16.02;9.13;;;;;;;21.91;nan;100367.09;2093400;28;20033;-65
2022/08/15 01:42:48;;;;;;;18.20;10.25;;;;;;;21.88;nan;100370.56;2104645;28;20941;-66
2022/08/15 01:44:05;;;;;;;18.13;9.32;;;;;;;21.90;nan;100362.78;2104730;28;20044;-66
2022/08/15 01:45:18;;;;;;;15.52;9.82;;;;;;;21.84;nan;100375.97;2098209;28;20059;-66
2022/08/15 01:46:23;;;;;;;;;;;;;;;21.87;nan;100369.00;2096410;28;20036;-67
2022/08/15 01:48:01;;;;;;;17.48;9.57;;;;;;;21.85;nan;100369.34;2096911;28;19923;-66
2022/08/15 01:49:26;;;;;;;16.90;9.52;;;;;;;21.87;nan;100369.00;2096204;28;20431;-66
2022/08/15 01:50:39;;;;;;;22.40;9.57;;;;;;;21.87;nan;100358.81;2110649;27;20422;-66
2022/08/15 01:51:42;;;;;;;18.00;9.90;;;;;;;21.89;nan;100364.75;2102950;28;20040;-66
2022/08/15 01:52:54;;;;;;;15.52;9.20;;;;;;;21.89;nan;100364.75;2096622;28;20048;-67
2022/08/15 01:54:05;;;;;;;21.23;9.90;;;;;;;21.87;nan;100367.03;2097953;28;20024;-66
2022/08/15 01:55:13;;;;;;;17.88;9.30;;;;;;;21.87;nan;100369.78;2097496;28;20040;-66
2022/08/15 01:56:32;;;;;;;13.25;9.70;;;;;;;21.91;nan;100375.31;2096955;28;20543;-66
2022/08/15 01:57:34;;;;;;;19.55;10.10;;;;;;;21.92;nan;100361.28;2096102;28;20551;-65
2022/08/15 01:58:45;;;;;;;19.00;10.00;;;;;;;21.91;nan;100370.66;2089163;28;20052;-66
2022/08/15 01:59:56;;;;;;;15.00;9.25;;;;;;;21.90;nan;100366.31;2106155;28;20051;-65
2022/08/15 02:01:06;;;;;;;21.80;10.00;;;;;;;21.93;nan;100365.59;2095212;28;20487;-66
2022/08/15 02:02:11;;;;;;;16.75;9.60;;;;;;;21.90;nan;100371.78;2098437;28;20024;-66
2022/08/15 02:03:14;;;;;;;21.17;9.63;;;;;;;21.88;nan;100360.44;2103315;28;20056;-66
2022/08/15 02:04:19;;;;;;;18.25;10.15;;;;;;;21.88;nan;100362.34;2096007;28;20036;-65
2022/08/15 02:05:25;;;;;;;21.65;10.27;;;;;;;21.86;nan;100368.19;2088785;28;20048;-66
2022/08/15 02:06:30;;;;;;;17.25;9.85;;;;;;;21.88;nan;100360.44;2088537;28;20037;-66
2022/08/15 02:07:37;;;;;;;20.10;10.48;;;;;;;21.91;nan;100362.44;2096962;28;20057;-65
2022/08/15 02:08:45;;;;;;;19.05;10.35;;;;;;;21.91;nan;100359.72;2096244;28;20036;-66
2022/08/15 02:09:52;;;;;;;20.45;10.25;;;;;;;21.91;nan;100350.69;2088623;28;20076;-66
2022/08/15 02:11:01;;;;;;;16.60;10.07;;;;;;;21.91;nan;100353.41;2080639;28;20047;-66
2022/08/15 02:12:08;;;;;;;20.70;10.38;;;;;;;21.92;nan;100353.06;2096920;28;20048;-66
2022/08/15 02:13:15;;;;;;;18.35;10.02;;;;;;;21.94;nan;100355.44;2103441;28;20047;-66
2022/08/15 02:14:24;;;;;;;18.83;10.45;;;;;;;21.95;nan;100352.34;2105146;28;20062;-66
2022/08/15 02:15:27;;;;;;;19.25;10.70;;;;;;;21.98;nan;100359.06;2103033;28;20028;-65
2022/08/15 02:16:35;;;;;;;19.75;10.75;;;;;;;21.96;nan;100353.94;2088313;28;20036;-66
2022/08/15 02:17:41;;;;;;;;;;;;;;;21.92;nan;100344.88;2096339;28;20056;-66
2022/08/15 02:18:43;;;;;;;18.98;9.68;;;;;;;21.92;nan;100341.34;2096999;28;19912;-67
2022/08/15 02:19:48;;;;;;;17.25;9.75;;;;;;;21.94;nan;100348.03;2087768;28;20488;-66
2022/08/15 02:20:57;;;;;;;15.63;9.70;;;;;;;21.93;nan;100343.69;2097332;28;20059;-65
2022/08/15 02:21:59;;;;;;;17.27;10.32;;;;;;;21.93;nan;100345.66;2110387;28;20039;-65
2022/08/15 02:23:03;;;;;;;21.88;10.43;;;;;;;21.93;nan;100346.44;2091677;28;20064;-65
2022/08/15 02:24:14;;;;;;;16.65;9.55;;;;;;;21.95;nan;100348.81;2073238;28;20084;-66
2022/08/15 02:25:18;;;;;;;17.33;9.43;;;;;;;21.96;nan;100351.19;2090832;28;20073;-65
2022/08/15 02:26:20;;;;;;;21.42;10.02;;;;;;;21.97;nan;100349.25;2095793;28;20048;-65
2022/08/15 02:27:25;;;;;;;16.35;9.95;;;;;;;21.97;nan;100344.59;2087652;28;20045;-66
2022/08/15 02:28:32;;;;;;;13.98;9.35;;;;;;;21.93;nan;100340.97;2089020;28;20040;-66
2022/08/15 02:29:39;;;;;;;16.33;9.93;;;;;;;21.94;nan;100348.03;2104378;28;20040;-66
2022/08/15 02:30:47;;;;;;;22.80;10.73;;;;;;;21.93;nan;100345.66;2102496;28;20071;-66
2022/08/15 02:31:51;;;;;;;18.75;9.73;;;;;;;21.89;nan;100340.09;2087803;28;20051;-66
2022/08/15 02:32:54;;;;;;;17.27;9.65;;;;;;;21.92;nan;100344.88;2087770;28;20035;-67
2022/08/15 02:34:00;;;;;;;18.42;9.00;;;;;;;21.90;nan;100336.22;2096488;28;20036;-66
2022/08/15 02:35:04;;;;;;;18.02;10.05;;;;;;;21.91;nan;100332.34;2103684;28;20468;-66
2022/08/15 02:36:09;;;;;;;17.10;10.75;;;;;;;21.90;nan;100338.16;2087908;28;20044;-66
2022/08/15 02:37:18;;;;;;;21.15;10.68;;;;;;;21.90;nan;100335.41;2088121;28;20044;-65
2022/08/15 02:38:22;;;;;;;16.70;10.13;;;;;;;21.89;nan;100340.09;2087524;28;20037;-66
2022/08/15 02:39:25;;;;;;;13.73;9.05;;;;;;;21.89;nan;100329.16;2080089;28;20064;-64
2022/08/15 02:40:28;;;;;;;18.70;9.55;;;;;;;21.89;nan;100337.38;2087717;28;20072;-65
2022/08/15 02:41:38;;;;;;;16.02;9.15;;;;;;;21.92;nan;100333.91;2087532;28;20041;-65
2022/08/15 02:42:46;;;;;;;18.17;9.88;;;;;;;21.94;nan;100333.53;2072456;28;20671;-65
2022/08/15 02:43:55;;;;;;;16.45;9.63;;;;;;;21.91;nan;100337.81;2081834;28;20064;-66
2022/08/15 02:44:58;;;;;;;15.95;9.93;;;;;;;21.93;nan;100330.00;2089801;28;20115;-64
2022/08/15 02:46:08;;;;;;;19.23;9.68;;;;;;;21.93;nan;100331.97;2096376;28;20044;-66
2022/08/15 02:47:15;;;;;;;20.45;10.30;;;;;;;21.92;nan;100331.19;2105825;28;20047;-65
2022/08/15 02:48:27;;;;;;;23.05;10.27;;;;;;;21.93;nan;100334.69;2112926;28;20085;-66
2022/08/15 02:49:29;;;;;;;15.50;10.02;;;;;;;21.91;nan;100337.00;2112196;28;20051;-67
2022/08/15 02:50:36;;;;;;;21.92;10.38;;;;;;;21.87;nan;100336.94;2104258;28;20051;-66
2022/08/15 02:51:42;;;;;;;17.40;10.02;;;;;;;21.90;nan;100340.91;2096835;28;20057;-66
2022/08/15 02:52:48;;;;;;;21.27;10.13;;;;;;;21.87;nan;100336.94;2096837;28;20052;-66
2022/08/15 02:53:52;;;;;;;16.55;9.77;;;;;;;21.90;nan;100325.25;2096538;28;20063;-65
2022/08/15 02:54:59;;;;;;;17.33;9.27;;;;;;;21.89;nan;100326.41;2104381;28;20035;-65
2022/08/15 02:56:06;;;;;;;20.20;9.90;;;;;;;21.89;nan;100331.91;2104522;28;20039;-66
2022/08/15 02:57:09;;;;;;;16.27;9.73;;;;;;;21.89;nan;100331.91;2105293;28;20039;-66
2022/08/15 02:58:13;;;;;;;15.40;10.18;;;;;;;21.91;nan;100332.34;2095901;28;20055;-66
2022/08/15 02:59:19;;;;;;;17.85;10.02;;;;;;;21.89;nan;100328.38;2087229;28;20117;-65
2022/08/15 03:00:23;;;;;;;14.40;9.90;;;;;;;21.89;nan;100331.09;2087302;28;20045;-66
2022/08/15 03:01:27;;;;;;;15.48;9.65;;;;;;;21.86;nan;100329.88;2088888;28;20059;-66
2022/08/15 03:02:58;;;;;;;14.98;9.80;;;;;;;21.85;nan;100333.78;2104383;28;20891;-66
2022/08/15 03:04:13;;;;;;;16.25;9.68;;;;;;;21.80;nan;100333.25;2100128;28;20056;-66
2022/08/15 03:05:16;;;;;;;14.05;9.48;;;;;;;21.81;nan;100321.16;2087525;28;20513;-66
2022/08/15 03:06:24;;;;;;;18.20;9.93;;;;;;;21.81;nan;100332.09;2087603;28;20040;-66
2022/08/15 03:07:29;;;;;;;16.75;9.50;;;;;;;21.80;nan;100327.78;2088582;28;20060;-66
2022/08/15 03:08:33;;;;;;;16.50;9.65;;;;;;;21.80;nan;100325.06;2088467;28;20742;-66
2022/08/15 03:09:35;;;;;;;15.95;9.70;;;;;;;21.85;nan;100327.53;2079296;28;20038;-67
2022/08/15 03:10:44;;;;;;;19.77;10.10;;;;;;;21.87;nan;100331.44;2088815;28;20052;-67
2022/08/15 03:11:51;;;;;;;15.30;9.35;;;;;;;21.83;nan;100324.34;2084797;28;20059;-66
2022/08/15 03:13:01;;;;;;;15.55;10.05;;;;;;;21.81;nan;100327.41;2072242;28;20049;-65
2022/08/15 03:14:09;;;;;;;13.48;9.18;;;;;;;21.82;nan;100326.28;2074035;28;20045;-65
2022/08/15 03:15:17;;;;;;;14.10;8.95;;;;;;;21.83;nan;100327.06;2090006;28;20051;-65
2022/08/15 03:16:19;;;;;;;14.25;9.57;;;;;;;21.85;nan;100333.00;2097552;28;20603;-65
2022/08/15 03:17:21;;;;;;;15.55;9.75;;;;;;;21.79;nan;100327.00;2088876;28;20048;-66
2022/08/15 03:18:28;;;;;;;16.95;9.52;;;;;;;21.77;nan;100332.03;2081089;28;20790;-65
2022/08/15 03:19:35;;;;;;;14.52;9.30;;;;;;;21.78;nan;100327.34;2104628;28;20036;-65
2022/08/15 03:20:43;;;;;;;19.50;9.95;;;;;;;21.77;nan;100325.78;2096261;28;20832;-66
2022/08/15 03:21:48;;;;;;;16.77;10.15;;;;;;;21.74;nan;100328.06;2090973;28;20036;-65
2022/08/15 03:22:59;;;;;;;15.57;9.18;;;;;;;21.77;nan;100325.78;2104733;28;20032;-66
2022/08/15 03:24:06;;;;;;;19.30;10.10;;;;;;;21.79;nan;100329.75;2104991;28;20039;-66
2022/08/15 03:25:09;;;;;;;18.52;10.68;;;;;;;21.75;nan;100323.38;2097242;28;20472;-67
2022/08/15 03:26:11;;;;;;;16.02;9.60;;;;;;;21.71;nan;100326.06;2105182;28;20056;-66
2022/08/15 03:27:15;;;;;;;12.70;9.30;;;;;;;21.73;nan;100325.72;2105448;28;20415;-66
2022/08/15 03:28:21;;;;;;;15.32;9.82;;;;;;;21.72;nan;100319.44;2089400;28;20037;-66
2022/08/15 03:29:28;;;;;;;20.25;10.13;;;;;;;21.71;nan;100328.00;2098430;28;20549;-66
2022/08/15 03:30:30;;;;;;;20.65;10.70;;;;;;;21.69;nan;100319.34;2102056;28;20071;-66
2022/08/15 03:31:35;;;;;;;13.73;9.65;;;;;;;21.69;nan;100325.63;2081097;28;20052;-66
2022/08/15 03:32:46;;;;;;;14.35;9.63;;;;;;;21.70;nan;100319.00;2082573;28;20029;-66
2022/08/15 03:33:54;;;;;;;16.83;10.55;;;;;;;21.74;nan;100321.81;2090733;28;20087;-66
2022/08/15 03:35:00;;;;;;;17.05;10.73;;;;;;;21.75;nan;100320.66;2096045;28;20029;-66
2022/08/15 03:36:05;;;;;;;16.80;10.32;;;;;;;21.79;nan;100323.47;2097476;28;20503;-66
2022/08/15 03:37:08;;;;;;;18.73;9.85;;;;;;;21.73;nan;100320.22;2100978;28;20044;-66
2022/08/15 03:38:13;;;;;;;18.23;10.30;;;;;;;21.75;nan;100323.38;2105456;28;20054;-66
2022/08/15 03:39:16;;;;;;;22.55;10.10;;;;;;;21.79;nan;100329.75;2096948;28;20045;-67
2022/08/15 03:40:20;;;;;;;20.45;9.77;;;;;;;21.75;nan;100321.47;2105884;28;20503;-66
2022/08/15 03:41:21;;;;;;;18.25;9.30;;;;;;;21.74;nan;100328.06;2105405;28;20047;-66
2022/08/15 03:42:29;;;;;;;19.23;9.95;;;;;;;21.74;nan;100327.28;2097795;28;20456;-67
2022/08/15 03:43:33;;;;;;;16.38;10.05;;;;;;;21.82;nan;100328.22;2104556;28;20043;-66
2022/08/15 03:44:35;;;;;;;20.17;10.00;;;;;;;21.83;nan;100329.81;2096292;28;20048;-67
2022/08/15 03:45:37;;;;;;;17.25;9.88;;;;;;;21.86;nan;100327.16;2103738;28;20582;-67
2022/08/15 03:46:46;;;;;;;17.80;9.48;;;;;;;21.87;nan;100328.72;2106516;28;20036;-67
2022/08/15 03:47:51;;;;;;;17.75;9.75;;;;;;;21.89;nan;100328.38;2105655;28;20395;-66
2022/08/15 03:48:56;;;;;;;15.88;9.80;;;;;;;21.90;nan;100319.00;2097600;28;20041;-66
2022/08/15 03:50:01;;;;;;;17.02;9.60;;;;;;;21.93;nan;100321.81;2106640;28;20047;-67
2022/08/15 03:51:03;;;;;;;17.05;10.60;;;;;;;21.99;nan;100314.88;2105849;28;20507;-66
2022/08/15 03:52:09;;;;;;;19.58;10.13;;;;;;;22.02;nan;100316.13;2089439;28;20044;-66
2022/08/15 03:53:19;;;;;;;12.90;9.25;;;;;;;22.05;nan;100318.13;2093243;28;20039;-66
2022/08/15 03:54:21;;;;;;;18.70;9.75;;;;;;;22.12;nan;100323.72;2104726;28;20051;-66
2022/08/15 03:55:25;;;;;;;18.10;9.50;;;;;;;22.16;nan;100316.44;2105788;28;20036;-66
2022/08/15 03:56:35;;;;;;;16.08;9.57;;;;;;;22.22;nan;100319.63;2089932;28;20044;-66
2022/08/15 03:57:43;;;;;;;22.55;10.93;;;;;;;22.24;nan;100322.03;2096103;28;20487;-68
2022/08/15 03:58:45;;;;;;;18.25;9.82;;;;;;;22.30;nan;100324.09;2097543;28;20044;-66
2022/08/15 03:59:48;;;;;;;17.92;10.02;;;;;;;22.29;nan;100308.03;2097177;28;20071;-66
2022/08/15 04:00:50;;;;;;;17.00;10.38;;;;;;;22.35;nan;100317.53;2088958;28;20041;-67
2022/08/15 04:01:52;;;;;;;16.52;10.00;;;;;;;22.35;nan;100306.56;2097424;28;20040;-67
2022/08/15 04:03:12;;;;;;;21.00;10.15;;;;;;;22.41;nan;100313.31;2105486;28;20028;-66
2022/08/15 04:04:17;;;;;;;15.35;9.90;;;;;;;22.40;nan;100309.00;2098756;28;20530;-66
2022/08/15 04:05:24;;;;;;;18.23;9.23;;;;;;;22.45;nan;100311.47;2098200;28;20063;-66
2022/08/15 04:06:29;;;;;;;18.88;8.98;;;;;;;22.52;nan;100313.53;2089371;28;20044;-67
2022/08/15 04:07:35;;;;;;;19.58;9.13;;;;;;;22.54;nan;100312.00;2097239;28;20063;-67
2022/08/15 04:08:38;;;;;;;16.80;9.10;;;;;;;22.62;nan;100315.66;2096583;28;20036;-67
2022/08/15 04:09:46;;;;;;;14.88;9.35;;;;;;;22.71;nan;100305.25;2089013;28;20067;-67
2022/08/15 04:10:55;;;;;;;14.85;9.45;;;;;;;22.76;nan;100302.19;2097172;28;20067;-64
2022/08/15 04:12:02;;;;;;;14.52;9.48;;;;;;;22.80;nan;100308.53;2088983;28;20036;-65
2022/08/15 04:13:20;;;;;;;17.10;9.10;;;;;;;22.88;nan;100299.22;2099617;28;20052;-65
2022/08/15 04:14:23;;;;;;;14.27;9.32;;;;;;;22.94;nan;100298.97;2088016;28;20476;-66
2022/08/15 04:15:33;;;;;;;14.43;8.75;;;;;;;23.02;nan;100295.19;2082400;28;20060;-65
2022/08/15 04:16:38;;;;;;;16.10;8.98;;;;;;;23.09;nan;100300.75;2088984;28;20455;-66
2022/08/15 04:17:43;;;;;;;14.48;8.82;;;;;;;23.15;nan;100299.28;2089496;28;20044;-66
2022/08/15 04:18:47;;;;;;;12.80;8.32;;;;;;;23.21;nan;100297.81;2097118;28;20045;-66
2022/08/15 04:19:50;;;;;;;12.88;8.77;;;;;;;23.22;nan;100301.34;2095422;28;20028;-66
2022/08/15 04:21:00;;;;;;;16.95;8.45;;;;;;;23.29;nan;100304.16;2097874;28;20048;-65
2022/08/15 04:22:06;;;;;;;13.93;8.60;;;;;;;23.35;nan;100302.69;2088776;28;20040;-64
2022/08/15 04:23:08;;;;;;;14.35;9.00;;;;;;;23.45;nan;100301.25;2081448;28;20045;-65
2022/08/15 04:24:12;;;;;;;15.73;8.65;;;;;;;23.51;nan;100300.53;2081328;28;20052;-65
2022/08/15 04:25:21;;;;;;;18.48;8.77;;;;;;;23.53;nan;100303.72;2088663;28;20045;-66
2022/08/15 04:26:26;;;;;;;16.25;8.70;;;;;;;23.45;nan;100296.53;2089749;28;20445;-65
2022/08/15 04:27:30;;;;;;;12.23;8.45;;;;;;;23.54;nan;100307.25;2097647;28;20040;-66
2022/08/15 04:28:36;;;;;;;18.95;8.93;;;;;;;23.69;nan;100305.50;2104807;28;20035;-67
2022/08/15 04:29:41;;;;;;;14.50;8.63;;;;;;;23.84;nan;100306.47;2096879;28;20466;-66
2022/08/15 04:30:46;;;;;;;15.98;8.43;;;;;;;23.93;nan;100304.19;2089332;28;20059;-66
2022/08/15 04:31:48;;;;;;;12.25;8.30;;;;;;;24.03;nan;100303.56;2089550;28;20033;-66
2022/08/15 04:32:52;;;;;;;15.50;9.00;;;;;;;24.10;nan;100303.63;2080413;28;20416;-67
2022/08/15 04:33:56;;;;;;;13.77;8.95;;;;;;;24.11;nan;100299.69;2089474;28;20043;-66
2022/08/15 04:35:05;;;;;;;20.98;8.95;;;;;;;24.14;nan;100296.19;2096942;28;20035;-66
2022/08/15 04:36:11;;;;;;;15.27;8.20;;;;;;;24.22;nan;100294.34;2088931;28;20041;-66
2022/08/15 04:37:18;;;;;;;13.95;9.15;;;;;;;24.28;nan;100288.13;2106165;28;20040;-66
2022/08/15 04:38:24;;;;;;;16.17;9.07;;;;;;;24.32;nan;100292.84;2102787;28;20498;-66
2022/08/15 04:39:27;;;;;;;12.63;8.05;;;;;;;24.36;nan;100288.19;2096473;28;20053;-66
2022/08/15 04:40:40;;;;;;;14.93;9.32;;;;;;;24.35;nan;100284.63;2105059;28;20419;-65
2022/08/15 04:41:45;;;;;;;20.35;8.98;;;;;;;24.31;nan;100288.50;2104392;28;20036;-66
2022/08/15 04:42:53;;;;;;;15.52;8.77;;;;;;;24.48;nan;100285.97;2096740;28;20048;-66
2022/08/15 04:43:56;;;;;;;22.20;8.98;;;;;;;24.57;nan;100293.91;2097017;28;20032;-65
2022/08/15 04:45:01;;;;;;;12.43;8.13;;;;;;;24.66;nan;100293.59;2090889;28;20037;-67
2022/08/15 04:46:04;;;;;;;10.93;7.95;;;;;;;24.80;nan;100290.13;2105852;28;20032;-66
2022/08/15 04:47:06;;;;;;;14.07;8.50;;;;;;;24.90;nan;100283.91;2105045;28;20103;-66
2022/08/15 04:48:14;;;;;;;12.50;7.07;;;;;;;24.99;nan;100287.13;2097089;28;20047;-65
2022/08/15 04:49:19;;;;;;;16.13;8.35;;;;;;;25.01;nan;100284.78;2101729;28;20052;-66
2022/08/15 04:50:22;;;;;;;10.45;8.00;;;;;;;25.01;nan;100284.78;2096806;28;20071;-66
2022/08/15 04:51:30;;;;;;;16.63;8.00;;;;;;;25.17;nan;100282.56;2097065;28;20048;-66
2022/08/15 04:52:31;;;;;;;12.32;7.72;;;;;;;25.20;nan;100281.78;2105268;28;20036;-66
2022/08/15 04:53:39;;;;;;;15.30;7.40;;;;;;;25.24;nan;100292.03;2104667;28;20051;-66
2022/08/15 04:54:41;;;;;;;14.82;7.65;;;;;;;25.37;nan;100291.31;2105172;28;20051;-67
2022/08/15 04:55:55;;;;;;;14.10;7.20;;;;;;;25.50;nan;100294.50;2080249;28;20164;-65
2022/08/15 04:56:57;;;;;;;12.75;7.40;;;;;;;25.60;nan;100288.28;2090857;28;20043;-66
2022/08/15 04:58:04;;;;;;;13.18;7.00;;;;;;;25.64;nan;100286.31;2105037;28;20048;-66
2022/08/15 04:59:07;;;;;;;12.15;7.90;;;;;;;25.57;nan;100291.03;2088523;28;20040;-66
2022/08/15 05:00:15;;;;;;;12.48;7.93;;;;;;;25.67;nan;100291.06;2089613;28;20053;-66
2022/08/15 05:01:39;;;;;;;10.48;7.35;;;;;;;25.93;nan;100288.41;2102300;28;20503;-65
2022/08/15 05:02:56;;;;;;;11.95;7.80;;;;;;;25.79;nan;100289.13;2113695;28;20044;-67
2022/08/15 05:04:00;;;;;;;13.93;7.72;;;;;;;25.93;nan;100283.69;2109221;28;20031;-66
2022/08/15 05:05:09;;;;;;;12.25;7.93;;;;;;;26.01;nan;100277.03;2095459;28;20471;-66
2022/08/15 05:06:14;;;;;;;14.85;7.45;;;;;;;26.11;nan;100278.22;2083361;28;20048;-64
2022/08/15 05:07:21;;;;;;;12.43;7.18;;;;;;;26.23;nan;100282.56;2097498;28;20048;-65
2022/08/15 05:08:28;;;;;;;11.65;7.60;;;;;;;26.21;nan;100276.66;2096839;28;20040;-65
2022/08/15 05:09:35;;;;;;;10.98;7.43;;;;;;;26.23;nan;100274.28;2088440;28;20051;-66
2022/08/15 05:10:42;;;;;;;14.38;7.38;;;;;;;26.29;nan;100283.75;2089244;28;20036;-66
2022/08/15 05:11:48;;;;;;;16.90;7.13;;;;;;;26.26;nan;100270.75;2096274;28;20068;-66
2022/08/15 05:12:50;;;;;;;10.10;6.90;;;;;;;26.40;nan;100273.53;2097287;28;20138;-65
2022/08/15 05:13:54;;;;;;;13.27;7.20;;;;;;;26.42;nan;100270.38;2096572;28;20044;-66
2022/08/15 05:15:07;;;;;;;14.88;7.35;;;;;;;26.35;nan;100271.16;2097985;28;20048;-66